KMDT/MDT METAR and TAF weather

Enter ICAO airport designator
Station Type Date Time Source
KMDT METAR 2020/09/21 05:56 UTC NOAA

KMDT 210556Z 33004KT 10SM CLR 08/03 A3055 RMK AO2 SLP345 T00830028 10144 20078 53001


Station Type Date Time Source
KMDT Decoded METAR 2020/09/21 05:56 UTC NOAA

HARRISBURG INTERNATIONAL AIRPORT, PA, United States (KMDT) 40-12N 076-46W 95M
Sep 21, 2020 - 01:56 AM EDT / 2020.09.21 0556 UTC
Wind: from the NNW (330 degrees) at 5 MPH (4 KT):0
Visibility: 10 mile(s):0
Sky conditions: clear
Temperature: 46.9 F (8.3 C)
Dew Point: 37.0 F (2.8 C)
Relative Humidity: 68%
Pressure (altimeter): 30.55 in. Hg (1034 hPa)
Pressure tendency: 0.00 inches (0.1 hPa) higher than three hours ago
ob: KMDT 210556Z 33004KT 10SM CLR 08/03 A3055 RMK AO2 SLP345 T00830028 10144 20078 53001
cycle: 6

Station Type Date Time Source
KMDT TAF 2020/09/21 06:24 UTC NOAA

TAF KMDT 210523Z 2106/2206 00000KT P6SM SKC
FM211400 07004KT P6SM SKC

Example: see airport list